McKean, Pennsylvania
Current Conditions -  °F | °C
As of 6:51 PM on Sunday 25 Jan 2015 (Local Time) from KERI Reporting Station
Clear Clear  
Wind Chill:   Ceiling: Unl
Heat Index: 19°   Visibility: 10mi
Dew Point: 12°   Wind: 15mph
Humidity: 74%   Direction: 50°NE
Pressure: 29.93"   Gusts: 21mph
Location:  42°N, 80.14°W
Report Text: KERI 252351Z 05013G18KT 10SM CLR M07/M11 A2993 RMK AO2 SLP147 T10721111 11056 21072 51014
Loading
Personal Weather Stations






























Interactive Weather Map New forecast layout! Learn more

10-Day Weather Forecast

Advertisements
Track Severe Weather on mobile